Time;durP1;ratioP1;P1;durP2;ratioP2;P2;SDS_P1;SDS_P2;PMS_P1;PMS_P2;Temp;Humidity;BMP_temperature;BMP_pressure;BME280_temperature;BME280_humidity;BME280_pressure;Samples;Min_cycle;Max_cycle;Signal;HPM_P1;HPM_P2
2023/10/05 04:45:10;;;;;;;;;;;;;;;10.95;81.52;100887.36;109724;1273;23291;-45
2023/10/05 04:47:48;;;;;;;;;;;;;;;10.92;81.85;100881.93;109870;1272;22505;-45
2023/10/05 04:50:19;;;;;;;;;;;;;;;10.93;81.84;100879.14;109884;1266;22566;-48
2023/10/05 04:52:48;;;;;;;;;;;;;;;10.90;81.81;100882.09;110000;1272;22605;-48
2023/10/05 04:55:22;;;;;;;;;;;;;;;10.85;81.89;100885.55;110027;1279;22527;-46
2023/10/05 04:58:15;;;;;;;;;;;;;;;10.88;82.11;100884.15;109796;1272;22596;-46
2023/10/05 05:03:32;;;;;;;;;;;;;;;11.04;81.86;100889.52;109959;1272;23775;-48
2023/10/05 05:08:34;;;;;;;;;;;;;;;11.19;81.59;100895.58;110009;1279;22461;-48
2023/10/05 05:11:03;;;;;;;;;;;;;;;11.27;81.14;100904.00;109979;1274;22467;-46
2023/10/05 05:13:29;;;;;;;;;;;;;;;11.34;80.78;100907.54;110000;1273;23156;-48
2023/10/05 05:15:57;;;;;;;;;;;;;;;11.40;80.52;100909.52;109952;1279;22846;-45
2023/10/05 05:18:23;;;;;;;;;;;;;;;11.47;80.33;100922.48;109950;1279;22593;-47
2023/10/05 05:20:53;;;;;;;;;;;;;;;11.53;80.02;100936.66;109955;1272;23216;-46
2023/10/05 05:23:23;;;;;;;;;;;;;;;11.59;79.97;100932.16;109771;1276;22480;-48
2023/10/05 05:25:54;;;;;;;;;;;;;;;11.66;79.79;100929.58;109561;1277;22504;-45
2023/10/05 05:28:23;;;;;;;;;;;;;;;11.74;79.46;100934.52;109445;1276;22579;-50
2023/10/05 05:30:54;;;;;;;;;;;;;;;11.82;79.35;100931.95;109743;1272;22535;-45
2023/10/05 05:33:25;;;;;;;;;;;;;;;11.92;78.96;100940.76;109274;1272;23497;-48
2023/10/05 05:35:59;;;;;;;;;;;;;;;12.05;78.88;100939.77;109345;1275;22538;-50
2023/10/05 05:38:47;;;;;;;;;;;;;;;12.16;78.36;100948.72;109414;1275;23177;-49
2023/10/05 05:41:19;;;;;;;;;;;;;;;12.22;78.25;100945.61;109703;1272;23016;-48
2023/10/05 05:43:45;;;;;;;;;;;;;;;12.29;78.21;100943.69;109827;1273;22483;-49
2023/10/05 05:46:13;;;;;;;;;;;;;;;12.36;78.12;100944.25;109784;1276;22617;-48
2023/10/05 05:48:42;;;;;;;;;;;;;;;12.42;77.83;100937.63;109787;1279;22528;-44
2023/10/05 05:51:15;;;;;;;;;;;;;;;12.48;77.14;100938.86;109683;1272;23293;-46
2023/10/05 05:53:58;;;;;;;;;;;;;;;12.53;76.93;100938.34;109458;1278;23300;-46
2023/10/05 05:56:28;;;;;;;;;;;;;;;12.58;76.62;100942.38;109675;1279;22567;-49
2023/10/05 05:58:55;;;;;;;;;;;;;;;12.62;76.29;100945.70;109713;1273;22682;-45
2023/10/05 06:01:23;;;;;;;;;;;;;;;12.67;76.05;100945.72;109680;1272;22472;-46
2023/10/05 06:03:51;;;;;;;;;;;;;;;12.72;75.77;100941.70;109703;1268;23359;-46
2023/10/05 06:06:19;;;;;;;;;;;;;;;12.80;75.73;100939.26;109633;1276;22507;-47
2023/10/05 06:08:46;;;;;;;;;;;;;;;12.87;75.13;100945.40;109782;1272;22497;-48
2023/10/05 06:11:14;;;;;;;;;;;;;;;12.92;75.00;100948.55;109498;1275;23300;-51
2023/10/05 06:13:45;;;;;;;;;;;;;;;12.99;75.04;100949.60;109613;1260;22535;-47
2023/10/05 06:16:14;;;;;;;;;;;;;;;13.08;75.06;100950.48;109630;1272;22490;-48
2023/10/05 06:18:46;;;;;;;;;;;;;;;13.19;75.00;100948.56;109556;1272;23134;-48
2023/10/05 06:21:19;;;;;;;;;;;;;;;13.29;74.58;100946.13;109544;1273;22472;-47
2023/10/05 06:23:46;;;;;;;;;;;;;;;13.37;74.28;100944.89;109787;1273;22479;-49
2023/10/05 06:26:13;;;;;;;;;;;;;;;13.44;73.96;100940.50;109870;1272;22917;-48
2023/10/05 06:28:40;;;;;;;;;;;;;;;13.53;73.78;100942.93;109659;1273;22532;-50
2023/10/05 06:31:11;;;;;;;;;;;;;;;13.61;73.28;100937.49;109656;1273;23111;-48
2023/10/05 06:33:42;;;;;;;;;;;;;;;13.67;72.80;100942.73;109832;1271;22562;-47
2023/10/05 06:36:09;;;;;;;;;;;;;;;13.70;72.28;100943.97;109818;1272;22491;-48
2023/10/05 06:38:37;;;;;;;;;;;;;;;13.73;72.29;100945.00;109826;1278;23731;-47
2023/10/05 06:41:16;;;;;;;;;;;;;;;13.79;72.36;100952.88;109591;1273;22513;-46
2023/10/05 06:44:10;;;;;;;;;;;;;;;13.91;72.28;100958.63;109832;1278;22539;-49
2023/10/05 06:46:43;;;;;;;;;;;;;;;14.03;71.97;100960.16;109525;1278;22669;-48
2023/10/05 06:49:10;;;;;;;;;;;;;;;14.10;71.02;100962.23;109654;1278;22985;-48
2023/10/05 06:51:45;;;;;;;;;;;;;;;14.14;70.56;100955.91;109841;1272;23663;-47
2023/10/05 07:05:54;;;;;;;;;;;;;;;14.46;69.28;100956.48;109601;1273;22455;-49
2023/10/05 07:17:00;;;;;;;;;;;;;;;14.87;68.51;100959.05;109611;1275;22492;-47
2023/10/05 07:23:36;;;;;;;;;;;;;;;15.24;67.97;100956.83;109847;1275;23008;-49
2023/10/05 07:26:15;;;;;;;;;;;;;;;15.40;67.52;100949.29;109687;1278;23767;-47
2023/10/05 07:28:41;;;;;;;;;;;;;;;15.56;67.04;100953.00;109823;1274;22459;-50
2023/10/05 07:31:09;;;;;;;;;;;;;;;15.70;66.84;100953.77;109757;1272;22450;-47
2023/10/05 07:33:36;;;;;;;;;;;;;;;15.81;66.04;100956.64;109807;1270;22548;-49
2023/10/05 07:36:05;;;;;;;;;;;;;;;15.89;65.42;100958.30;109772;1272;23298;-48
2023/10/05 07:38:32;;;;;;;;;;;;;;;16.01;65.39;100954.65;109748;1273;22472;-47
2023/10/05 07:40:59;;;;;;;;;;;;;;;16.15;64.38;100953.59;109844;1274;22474;-49
2023/10/05 07:43:27;;;;;;;;;;;;;;;16.21;63.75;100955.80;109773;1272;22635;-48
2023/10/05 07:45:56;;;;;;;;;;;;;;;16.26;63.39;100955.58;109713;1278;22569;-48
2023/10/05 07:48:23;;;;;;;;;;;;;;;16.34;62.97;100956.70;109803;1272;22567;-48
2023/10/05 07:50:51;;;;;;;;;;;;;;;16.43;62.63;100952.71;109818;1272;22522;-47
2023/10/05 07:53:19;;;;;;;;;;;;;;;16.55;62.35;100951.30;109804;1273;22495;-49
2023/10/05 07:55:47;;;;;;;;;;;;;;;16.65;61.88;100946.39;109750;1274;23314;-49
2023/10/05 07:58:14;;;;;;;;;;;;;;;16.75;61.45;100951.57;109852;1277;22603;-50
2023/10/05 08:00:42;;;;;;;;;;;;;;;16.84;60.83;100951.80;109822;1276;22596;-47
2023/10/05 08:03:09;;;;;;;;;;;;;;;16.90;60.44;100949.58;109773;1278;22818;-48
2023/10/05 08:05:36;;;;;;;;;;;;;;;16.97;60.20;100948.94;109855;1275;22494;-49
2023/10/05 08:08:07;;;;;;;;;;;;;;;17.05;60.04;100944.92;109757;1276;22504;-49
2023/10/05 08:10:34;;;;;;;;;;;;;;;17.15;59.28;100947.95;109840;1278;22492;-48
2023/10/05 08:13:05;;;;;;;;;;;;;;;17.12;58.70;100951.52;109634;1273;22493;-47
2023/10/05 08:15:34;;;;;;;;;;;;;;;17.06;59.07;100949.16;109349;1275;23331;-49
2023/10/05 08:18:01;;;;;;;;;;;;;;;17.11;59.11;100947.30;109712;1276;22485;-50
2023/10/05 08:20:28;;;;;;;;;;;;;;;17.19;58.60;100944.35;109795;1276;22891;-48
2023/10/05 08:22:56;;;;;;;;;;;;;;;17.25;58.19;100944.60;109813;1275;22510;-49
2023/10/05 08:25:28;;;;;;;;;;;;;;;17.28;57.62;100943.14;109681;1275;22557;-47
2023/10/05 08:27:59;;;;;;;;;;;;;;;17.29;57.64;100943.84;109623;1271;22747;-48
2023/10/05 08:30:26;;;;;;;;;;;;;;;17.35;57.67;100944.08;109816;1272;23965;-49
2023/10/05 08:32:56;;;;;;;;;;;;;;;17.45;57.42;100947.95;109713;1278;22511;-47
2023/10/05 08:35:40;;;;;;;;;;;;;;;17.56;56.68;100945.30;109344;1279;22536;-49
2023/10/05 08:38:15;;;;;;;;;;;;;;;17.58;56.35;100939.44;109470;1278;22514;-48
2023/10/05 08:40:42;;;;;;;;;;;;;;;17.63;56.33;100935.64;109716;1275;23236;-49
2023/10/05 08:43:10;;;;;;;;;;;;;;;17.69;55.87;100936.21;109706;1272;23357;-48
2023/10/05 08:45:38;;;;;;;;;;;;;;;17.71;55.21;100939.89;109795;1275;22526;-48
2023/10/05 08:48:08;;;;;;;;;;;;;;;17.73;55.07;100933.70;109861;1272;23097;-48
2023/10/05 08:50:37;;;;;;;;;;;;;;;17.82;55.19;100938.83;109574;1276;22687;-49
2023/10/05 08:53:12;;;;;;;;;;;;;;;17.87;55.11;100935.20;109539;1275;22525;-48
2023/10/05 08:55:41;;;;;;;;;;;;;;;17.93;54.55;100938.42;109777;1273;22605;-48
2023/10/05 08:58:15;;;;;;;;;;;;;;;18.02;54.01;100935.59;109636;1275;22512;-48
2023/10/05 09:00:48;;;;;;;;;;;;;;;18.13;53.60;100936.79;109628;1270;23429;-47
2023/10/05 09:06:14;;;;;;;;;;;;;;;18.20;53.45;100931.34;109714;1276;22512;-47
2023/10/05 09:11:32;;;;;;;;;;;;;;;18.20;52.84;100933.63;109629;1276;22966;-51
2023/10/05 09:14:13;;;;;;;;;;;;;;;18.21;52.70;100936.27;109743;1273;22489;-52
2023/10/05 09:16:47;;;;;;;;;;;;;;;18.25;52.64;100928.75;109446;1277;22500;-47
2023/10/05 09:19:25;;;;;;;;;;;;;;;18.29;52.65;100922.48;109815;1273;23411;-47
2023/10/05 09:22:16;;;;;;;;;;;;;;;18.28;52.84;100919.34;109736;1278;23713;-49
2023/10/05 09:24:52;;;;;;;;;;;;;;;18.27;52.58;100916.54;109575;1272;23054;-48
2023/10/05 09:27:20;;;;;;;;;;;;;;;18.31;51.90;100919.63;109783;1276;23628;-47
2023/10/05 09:29:48;;;;;;;;;;;;;;;18.34;51.88;100912.49;109770;1275;23166;-47
2023/10/05 09:32:22;;;;;;;;;;;;;;;18.39;51.93;100907.61;109810;1272;23581;-49
2023/10/05 09:34:50;;;;;;;;;;;;;;;18.46;52.00;100897.38;109713;1272;22561;-48
2023/10/05 09:37:18;;;;;;;;;;;;;;;18.54;51.66;100901.45;109768;1272;23033;-47
2023/10/05 09:39:53;;;;;;;;;;;;;;;18.63;51.22;100902.30;109866;1275;23411;-47
2023/10/05 09:42:25;;;;;;;;;;;;;;;18.76;50.92;100897.59;109808;1272;23151;-47
2023/10/05 09:45:30;;;;;;;;;;;;;;;18.89;50.65;100898.33;109826;1271;22494;-49
2023/10/05 09:47:53;;;;;;;;;;;;;;;18.95;49.88;100885.80;109803;1273;23312;-47
2023/10/05 09:50:27;;;;;;;;;;;;;;;18.94;49.53;100886.02;109580;1275;22513;-48
2023/10/05 09:53:06;;;;;;;;;;;;;;;18.90;48.81;100881.87;109485;1276;23843;-48
2023/10/05 09:55:35;;;;;;;;;;;;;;;18.86;48.76;100881.27;109728;1273;22496;-48
2023/10/05 09:58:12;;;;;;;;;;;;;;;18.85;48.69;100885.72;109815;1272;22527;-48
2023/10/05 10:03:06;;;;;;;;;;;;;;;19.09;48.28;100882.63;109921;1273;22594;-47
2023/10/05 10:05:36;;;;;;;;;;;;;;;19.30;47.07;100877.30;109961;1272;22487;-49
2023/10/05 10:08:14;;;;;;;;;;;;;;;19.50;46.46;100878.88;109945;1276;22460;-48
2023/10/05 10:10:51;;;;;;;;;;;;;;;19.69;45.98;100862.27;109874;1278;22544;-52
2023/10/05 10:13:22;;;;;;;;;;;;;;;20.03;45.47;100860.74;109696;1273;22443;-52
2023/10/05 10:15:51;;;;;;;;;;;;;;;20.44;44.79;100846.55;109701;1275;23359;-53
2023/10/05 10:18:21;;;;;;;;;;;;;;;20.94;44.03;100836.95;109613;1278;22473;-53
2023/10/05 10:20:51;;;;;;;;;;;;;;;21.45;42.86;100831.96;109673;1278;22481;-50
2023/10/05 10:23:35;;;;;;;;;;;;;;;21.93;41.48;100826.06;109742;1275;22529;-50
2023/10/05 10:26:06;;;;;;;;;;;;;;;22.46;40.30;100821.88;109625;1273;22519;-53
2023/10/05 10:29:22;;;;;;;;;;;;;;;22.88;39.05;100818.88;109802;1273;24225;-53
2023/10/05 10:31:42;;;;;;;;;;;;;;;23.31;38.38;100808.13;109649;1279;22558;-51
2023/10/05 10:34:38;;;;;;;;;;;;;;;23.70;37.24;100801.20;109766;1279;22583;-53
2023/10/05 10:37:13;;;;;;;;;;;;;;;23.94;35.98;100795.10;109665;1279;22496;-52
2023/10/05 10:39:47;;;;;;;;;;;;;;;24.03;34.87;100792.33;109615;1272;22500;-53
2023/10/05 10:42:21;;;;;;;;;;;;;;;24.04;34.66;100787.34;109215;1275;23873;-48
2023/10/05 10:47:22;;;;;;;;;;;;;;;24.22;33.95;100782.31;109849;1275;22478;-59
2023/10/05 10:50:16;;;;;;;;;;;;;;;24.24;34.02;100782.77;109919;1276;22948;-48
2023/10/05 10:52:43;;;;;;;;;;;;;;;24.52;34.08;100777.84;109834;1273;23789;-57
2023/10/05 10:55:14;;;;;;;;;;;;;;;24.77;33.23;100777.09;109907;1274;22437;-58
2023/10/05 10:57:47;;;;;;;;;;;;;;;24.85;32.85;100778.14;109781;1272;23111;-49
2023/10/05 11:03:09;;;;;;;;;;;;;;;24.70;32.57;100780.12;109744;1274;22571;-48
2023/10/05 11:05:39;;;;;;;;;;;;;;;24.49;32.68;100777.80;109763;1276;23303;-56
2023/10/05 11:08:12;;;;;;;;;;;;;;;24.34;33.15;100777.85;109662;1274;23018;-48
2023/10/05 11:10:43;;;;;;;;;;;;;;;24.20;32.41;100780.84;109592;1278;22428;-48
2023/10/05 11:13:18;;;;;;;;;;;;;;;23.74;32.68;100779.11;109830;1273;22554;-48
2023/10/05 11:15:59;;;;;;;;;;;;;;;23.18;33.91;100788.95;109625;1274;22447;-48
2023/10/05 11:18:39;;;;;;;;;;;;;;;22.72;34.87;100791.98;109878;1272;23754;-48
2023/10/05 11:21:14;;;;;;;;;;;;;;;22.48;35.48;100796.56;109831;1273;22429;-56
2023/10/05 11:23:48;;;;;;;;;;;;;;;22.25;35.69;100789.31;109554;1273;23411;-56
2023/10/05 11:26:36;;;;;;;;;;;;;;;22.06;35.92;100789.86;109605;1277;23733;-56
2023/10/05 11:29:20;;;;;;;;;;;;;;;21.90;36.13;100787.12;109790;1276;22550;-56
2023/10/05 11:31:50;;;;;;;;;;;;;;;21.81;36.16;100785.70;109888;1276;22447;-55
2023/10/05 11:34:42;;;;;;;;;;;;;;;21.71;35.98;100783.61;109899;1272;22480;-55
2023/10/05 11:37:30;;;;;;;;;;;;;;;21.48;36.58;100775.60;109988;1276;22572;-57
2023/10/05 11:40:00;;;;;;;;;;;;;;;21.31;36.96;100783.88;110042;1272;23431;-55
2023/10/05 11:42:34;;;;;;;;;;;;;;;21.24;36.98;100782.85;110038;1274;22469;-54
2023/10/05 11:45:12;;;;;;;;;;;;;;;21.22;36.88;100772.80;110011;1278;22898;-56
2023/10/05 11:47:45;;;;;;;;;;;;;;;21.19;36.90;100771.51;109999;1273;23282;-56
2023/10/05 11:50:24;;;;;;;;;;;;;;;21.07;37.29;100770.16;110110;1272;22498;-56
2023/10/05 11:52:53;;;;;;;;;;;;;;;20.95;37.50;100757.31;110043;1273;23387;-55
2023/10/05 11:55:23;;;;;;;;;;;;;;;20.94;37.56;100755.20;110042;1272;23387;-55
2023/10/05 11:57:52;;;;;;;;;;;;;;;20.88;37.59;100752.39;109982;1273;23428;-55
2023/10/05 12:00:19;;;;;;;;;;;;;;;20.72;37.70;100748.35;109881;1273;24764;-56
2023/10/05 12:02:46;;;;;;;;;;;;;;;20.60;37.79;100744.86;109965;1274;22454;-56
2023/10/05 12:05:13;;;;;;;;;;;;;;;20.56;38.24;100739.85;109971;1272;22443;-56
2023/10/05 12:07:41;;;;;;;;;;;;;;;20.55;38.25;100733.34;109984;1277;23063;-56
2023/10/05 12:10:09;;;;;;;;;;;;;;;20.55;37.73;100731.20;110018;1273;23164;-55
2023/10/05 12:12:41;;;;;;;;;;;;;;;20.43;37.75;100723.98;110051;1274;22587;-56
2023/10/05 12:15:17;;;;;;;;;;;;;;;20.38;38.11;100713.34;110117;1273;23364;-56
2023/10/05 12:17:45;;;;;;;;;;;;;;;20.35;38.13;100710.41;110075;1260;22521;-55
2023/10/05 12:20:13;;;;;;;;;;;;;;;20.24;38.09;100705.33;110063;1276;23326;-55
2023/10/05 12:22:45;;;;;;;;;;;;;;;20.07;38.45;100700.55;110079;1278;22514;-56
2023/10/05 12:25:14;;;;;;;;;;;;;;;19.88;39.07;100706.12;110031;1276;23162;-48
2023/10/05 12:27:41;;;;;;;;;;;;;;;19.76;39.48;100704.04;110069;1276;23118;-48
2023/10/05 12:30:11;;;;;;;;;;;;;;;19.69;39.61;100704.97;109998;1278;22539;-48
2023/10/05 12:32:38;;;;;;;;;;;;;;;19.67;39.78;100701.86;110075;1273;22455;-49
2023/10/05 12:35:13;;;;;;;;;;;;;;;19.61;40.09;100705.04;110126;1275;22524;-48
2023/10/05 12:37:41;;;;;;;;;;;;;;;19.57;40.35;100709.02;110105;1278;22461;-49
2023/10/05 12:40:26;;;;;;;;;;;;;;;19.59;40.34;100706.68;110118;1272;23227;-48
2023/10/05 12:42:53;;;;;;;;;;;;;;;19.63;40.60;100707.27;110078;1276;23230;-48
2023/10/05 12:45:39;;;;;;;;;;;;;;;19.66;40.22;100707.54;110112;1273;22475;-49
2023/10/05 12:48:06;;;;;;;;;;;;;;;19.69;40.44;100710.64;110140;1278;23252;-48
2023/10/05 12:50:33;;;;;;;;;;;;;;;19.74;40.40;100708.35;110092;1274;22465;-47
2023/10/05 12:53:00;;;;;;;;;;;;;;;19.85;40.51;100695.95;110116;1270;22579;-48
2023/10/05 12:55:29;;;;;;;;;;;;;;;19.96;40.13;100682.89;110127;1267;22433;-48
2023/10/05 12:57:56;;;;;;;;;;;;;;;20.05;40.21;100687.36;110137;1260;22454;-47
2023/10/05 13:00:36;;;;;;;;;;;;;;;20.12;39.73;100692.24;110115;1267;23269;-47
2023/10/05 13:03:04;;;;;;;;;;;;;;;20.08;39.37;100686.20;110104;1261;22457;-49
2023/10/05 13:05:31;;;;;;;;;;;;;;;20.03;39.73;100683.88;110037;1271;22447;-55
2023/10/05 13:08:02;;;;;;;;;;;;;;;20.00;39.96;100674.75;110094;1260;22478;-53
2023/10/05 13:10:32;;;;;;;;;;;;;;;20.00;40.03;100674.42;110082;1269;22418;-55
2023/10/05 13:13:02;;;;;;;;;;;;;;;20.01;40.00;100668.37;110124;1278;22445;-47
2023/10/05 13:15:32;;;;;;;;;;;;;;;19.99;39.98;100667.89;110130;1267;23174;-47
2023/10/05 13:18:15;;;;;;;;;;;;;;;19.94;39.92;100668.79;110139;1267;22433;-56
2023/10/05 13:20:42;;;;;;;;;;;;;;;19.86;39.47;100667.41;110193;1267;22490;-48
2023/10/05 13:23:11;;;;;;;;;;;;;;;19.86;39.62;100671.16;110204;1264;22479;-47
2023/10/05 13:25:39;;;;;;;;;;;;;;;19.95;39.68;100670.67;110155;1267;22539;-47
2023/10/05 13:28:11;;;;;;;;;;;;;;;20.05;39.52;100673.72;110111;1264;22455;-48
2023/10/05 13:30:41;;;;;;;;;;;;;;;20.09;39.53;100672.70;110128;1270;22441;-46
2023/10/05 13:33:13;;;;;;;;;;;;;;;20.09;39.45;100668.09;110148;1266;23297;-55
2023/10/05 13:35:41;;;;;;;;;;;;;;;20.10;39.77;100672.31;110086;1267;23128;-55
2023/10/05 13:38:12;;;;;;;;;;;;;;;20.15;39.64;100672.68;110074;1267;22511;-48
2023/10/05 13:40:40;;;;;;;;;;;;;;;20.29;39.38;100673.09;110090;1265;23252;-55
2023/10/05 13:43:07;;;;;;;;;;;;;;;20.40;39.27;100669.52;110052;1275;22534;-55
2023/10/05 13:45:33;;;;;;;;;;;;;;;20.46;39.00;100665.97;110196;1266;22405;-56
2023/10/05 13:48:01;;;;;;;;;;;;;;;20.43;38.55;100668.68;110156;1264;23261;-47
2023/10/05 13:50:28;;;;;;;;;;;;;;;20.38;38.51;100660.02;110107;1267;22585;-56
2023/10/05 13:52:55;;;;;;;;;;;;;;;20.44;38.90;100664.77;110177;1267;22520;-55
2023/10/05 13:55:23;;;;;;;;;;;;;;;20.54;38.67;100662.00;110054;1263;22545;-47
2023/10/05 13:57:50;;;;;;;;;;;;;;;20.56;38.72;100657.65;110135;1278;22460;-48
2023/10/05 14:00:19;;;;;;;;;;;;;;;20.56;38.42;100659.08;110085;1272;22943;-54
2023/10/05 14:02:47;;;;;;;;;;;;;;;20.65;38.58;100652.90;110109;1270;22469;-48
2023/10/05 14:05:14;;;;;;;;;;;;;;;20.67;38.40;100654.05;110170;1262;22901;-54
2023/10/05 14:07:40;;;;;;;;;;;;;;;20.59;38.58;100655.76;110065;1261;23159;-55
2023/10/05 14:10:10;;;;;;;;;;;;;;;20.62;38.48;100653.00;110098;1267;23164;-47
2023/10/05 14:12:39;;;;;;;;;;;;;;;20.68;38.47;100647.27;110157;1278;22441;-47
2023/10/05 14:15:08;;;;;;;;;;;;;;;20.71;38.33;100648.77;110178;1268;22971;-47
2023/10/05 14:17:35;;;;;;;;;;;;;;;20.78;38.37;100648.52;110240;1259;22439;-55
